sensor_id;sensor_type;location;lat;lon;timestamp;pressure;altitude;pressure_sealevel;temperature;humidity
77526;BME280;66627;29.424;-98.496;2023-06-22T00:00:30;97971.69;;;39.01;29.43
77526;BME280;66627;29.424;-98.496;2023-06-22T00:02:56;97978.40;;;39.11;29.71
77526;BME280;66627;29.424;-98.496;2023-06-22T00:05:21;97984.30;;;38.93;29.79
77526;BME280;66627;29.424;-98.496;2023-06-22T00:07:47;97990.91;;;38.43;29.76
77526;BME280;66627;29.424;-98.496;2023-06-22T00:10:12;98015.42;;;38.46;30.46
77526;BME280;66627;29.424;-98.496;2023-06-22T00:12:37;98035.42;;;38.43;30.82
77526;BME280;66627;29.424;-98.496;2023-06-22T00:15:03;98052.77;;;38.32;31.34
77526;BME280;66627;29.424;-98.496;2023-06-22T00:17:28;98065.39;;;38.35;33.82
77526;BME280;66627;29.424;-98.496;2023-06-22T00:19:53;98098.05;;;37.75;33.77
77526;BME280;66627;29.424;-98.496;2023-06-22T00:22:19;98138.11;;;37.16;34.56
77526;BME280;66627;29.424;-98.496;2023-06-22T00:24:44;98159.06;;;35.46;28.92
77526;BME280;66627;29.424;-98.496;2023-06-22T00:27:09;98178.20;;;34.27;29.56
77526;BME280;66627;29.424;-98.496;2023-06-22T00:29:35;98204.63;;;33.77;30.40
77526;BME280;66627;29.424;-98.496;2023-06-22T00:32:00;98228.81;;;33.22;31.45
77526;BME280;66627;29.424;-98.496;2023-06-22T00:34:25;98234.61;;;32.52;30.45
77526;BME280;66627;29.424;-98.496;2023-06-22T00:36:51;98230.97;;;32.15;30.61
77526;BME280;66627;29.424;-98.496;2023-06-22T00:39:16;98229.92;;;32.04;32.33
77526;BME280;66627;29.424;-98.496;2023-06-22T00:41:41;98234.18;;;31.43;34.50
77526;BME280;66627;29.424;-98.496;2023-06-22T00:44:07;98243.69;;;31.75;34.24
77526;BME280;66627;29.424;-98.496;2023-06-22T00:46:33;98250.54;;;31.85;34.74
77526;BME280;66627;29.424;-98.496;2023-06-22T00:48:58;98252.26;;;31.14;36.00
77526;BME280;66627;29.424;-98.496;2023-06-22T00:51:23;98238.53;;;31.35;35.83
77526;BME280;66627;29.424;-98.496;2023-06-22T00:53:49;98244.99;;;32.09;36.96
77526;BME280;66627;29.424;-98.496;2023-06-22T00:56:14;98248.88;;;31.89;37.78
77526;BME280;66627;29.424;-98.496;2023-06-22T00:58:39;98244.37;;;31.10;38.30
77526;BME280;66627;29.424;-98.496;2023-06-22T01:01:05;98241.83;;;31.24;39.13
77526;BME280;66627;29.424;-98.496;2023-06-22T01:03:30;98237.03;;;31.19;40.12
77526;BME280;66627;29.424;-98.496;2023-06-22T01:05:58;98237.46;;;30.84;40.19
77526;BME280;66627;29.424;-98.496;2023-06-22T01:08:29;98233.95;;;30.25;39.98
77526;BME280;66627;29.424;-98.496;2023-06-22T01:10:50;98226.80;;;31.11;37.25
77526;BME280;66627;29.424;-98.496;2023-06-22T01:13:21;98225.31;;;30.74;37.36
77526;BME280;66627;29.424;-98.496;2023-06-22T01:15:39;98230.19;;;30.97;35.15
77526;BME280;66627;29.424;-98.496;2023-06-22T01:18:04;98237.68;;;31.17;34.83
77526;BME280;66627;29.424;-98.496;2023-06-22T01:20:29;98247.03;;;31.36;35.33
77526;BME280;66627;29.424;-98.496;2023-06-22T01:23:07;98246.20;;;31.60;33.91
77526;BME280;66627;29.424;-98.496;2023-06-22T01:25:24;98240.40;;;31.63;32.04
77526;BME280;66627;29.424;-98.496;2023-06-22T01:27:53;98254.19;;;31.78;31.06
77526;BME280;66627;29.424;-98.496;2023-06-22T01:30:11;98259.57;;;32.36;30.57
77526;BME280;66627;29.424;-98.496;2023-06-22T01:32:35;98258.63;;;32.76;31.65
77526;BME280;66627;29.424;-98.496;2023-06-22T01:35:03;98245.29;;;32.69;31.65
77526;BME280;66627;29.424;-98.496;2023-06-22T01:37:25;98224.36;;;32.65;34.77
77526;BME280;66627;29.424;-98.496;2023-06-22T01:39:51;98192.56;;;32.17;32.37
77526;BME280;66627;29.424;-98.496;2023-06-22T01:42:17;98151.24;;;32.10;34.59
77526;BME280;66627;29.424;-98.496;2023-06-22T01:44:42;98114.86;;;31.68;34.24
77526;BME280;66627;29.424;-98.496;2023-06-22T01:47:07;98084.48;;;31.33;37.29
77526;BME280;66627;29.424;-98.496;2023-06-22T01:49:33;98056.62;;;31.43;36.38
77526;BME280;66627;29.424;-98.496;2023-06-22T01:51:59;98017.82;;;31.39;35.11
77526;BME280;66627;29.424;-98.496;2023-06-22T01:54:25;97999.39;;;31.30;34.82
77526;BME280;66627;29.424;-98.496;2023-06-22T01:56:50;97996.32;;;31.73;33.77
77526;BME280;66627;29.424;-98.496;2023-06-22T01:59:20;98006.74;;;31.80;34.96
77526;BME280;66627;29.424;-98.496;2023-06-22T02:01:44;98030.72;;;31.65;34.86
77526;BME280;66627;29.424;-98.496;2023-06-22T02:04:13;98039.60;;;31.56;33.57
77526;BME280;66627;29.424;-98.496;2023-06-22T02:06:37;98049.20;;;31.28;33.48
77526;BME280;66627;29.424;-98.496;2023-06-22T02:08:59;98049.05;;;31.44;34.14
77526;BME280;66627;29.424;-98.496;2023-06-22T02:11:24;98039.28;;;31.68;33.65
77526;BME280;66627;29.424;-98.496;2023-06-22T02:13:49;98029.04;;;31.77;33.30
77526;BME280;66627;29.424;-98.496;2023-06-22T02:16:15;98011.37;;;31.87;33.06
77526;BME280;66627;29.424;-98.496;2023-06-22T02:21:05;97977.83;;;32.07;32.03
77526;BME280;66627;29.424;-98.496;2023-06-22T02:23:31;97964.32;;;31.98;32.09
77526;BME280;66627;29.424;-98.496;2023-06-22T02:25:57;97961.53;;;31.95;31.62
77526;BME280;66627;29.424;-98.496;2023-06-22T02:28:22;97956.33;;;31.86;32.66
77526;BME280;66627;29.424;-98.496;2023-06-22T02:30:47;97952.94;;;31.83;30.50
77526;BME280;66627;29.424;-98.496;2023-06-22T02:33:12;97953.67;;;31.53;31.66
77526;BME280;66627;29.424;-98.496;2023-06-22T02:35:37;97969.29;;;31.76;30.89
77526;BME280;66627;29.424;-98.496;2023-06-22T02:38:04;97993.26;;;32.47;29.84
77526;BME280;66627;29.424;-98.496;2023-06-22T02:40:28;98038.84;;;31.74;29.19
77526;BME280;66627;29.424;-98.496;2023-06-22T02:42:53;98048.81;;;31.71;30.24
77526;BME280;66627;29.424;-98.496;2023-06-22T02:45:18;98047.99;;;31.20;30.04
77526;BME280;66627;29.424;-98.496;2023-06-22T02:47:44;98049.81;;;31.37;30.38
77526;BME280;66627;29.424;-98.496;2023-06-22T02:50:09;98040.72;;;31.77;30.82
77526;BME280;66627;29.424;-98.496;2023-06-22T02:52:34;98033.80;;;31.70;31.86
77526;BME280;66627;29.424;-98.496;2023-06-22T02:54:58;98027.49;;;31.06;32.10
77526;BME280;66627;29.424;-98.496;2023-06-22T02:57:24;98029.34;;;30.97;32.77
77526;BME280;66627;29.424;-98.496;2023-06-22T02:59:49;98030.28;;;30.95;31.56
77526;BME280;66627;29.424;-98.496;2023-06-22T03:02:15;98035.82;;;30.78;32.10
77526;BME280;66627;29.424;-98.496;2023-06-22T03:04:40;98045.52;;;30.58;31.56
77526;BME280;66627;29.424;-98.496;2023-06-22T03:07:06;98051.06;;;31.53;30.56
77526;BME280;66627;29.424;-98.496;2023-06-22T03:09:30;98055.37;;;31.82;29.92
77526;BME280;66627;29.424;-98.496;2023-06-22T03:11:56;98063.66;;;31.58;29.61
77526;BME280;66627;29.424;-98.496;2023-06-22T03:14:21;98065.94;;;32.11;29.63
77526;BME280;66627;29.424;-98.496;2023-06-22T03:16:46;98067.12;;;32.21;28.59
77526;BME280;66627;29.424;-98.496;2023-06-22T03:19:12;98072.09;;;32.65;28.93
77526;BME280;66627;29.424;-98.496;2023-06-22T03:21:38;98078.91;;;32.20;29.39
77526;BME280;66627;29.424;-98.496;2023-06-22T03:24:03;98099.70;;;32.20;28.14
77526;BME280;66627;29.424;-98.496;2023-06-22T03:26:28;98110.71;;;31.59;29.77
77526;BME280;66627;29.424;-98.496;2023-06-22T03:28:53;98125.33;;;31.50;28.96
77526;BME280;66627;29.424;-98.496;2023-06-22T03:31:18;98126.43;;;30.86;28.35
77526;BME280;66627;29.424;-98.496;2023-06-22T03:33:43;98137.98;;;30.71;29.06
77526;BME280;66627;29.424;-98.496;2023-06-22T03:36:10;98162.60;;;31.40;29.90
77526;BME280;66627;29.424;-98.496;2023-06-22T03:38:34;98161.53;;;31.10;29.55
77526;BME280;66627;29.424;-98.496;2023-06-22T03:40:59;98203.82;;;30.25;31.03
77526;BME280;66627;29.424;-98.496;2023-06-22T03:43:25;98203.64;;;30.98;31.25
77526;BME280;66627;29.424;-98.496;2023-06-22T03:45:50;98200.00;;;30.97;32.09
77526;BME280;66627;29.424;-98.496;2023-06-22T03:48:15;98206.00;;;30.41;34.27
77526;BME280;66627;29.424;-98.496;2023-06-22T03:50:40;98193.75;;;29.81;35.25
77526;BME280;66627;29.424;-98.496;2023-06-22T03:53:06;98182.06;;;30.77;34.99
77526;BME280;66627;29.424;-98.496;2023-06-22T03:55:33;98198.84;;;30.74;34.72
77526;BME280;66627;29.424;-98.496;2023-06-22T03:57:57;98197.33;;;29.92;36.30
77526;BME280;66627;29.424;-98.496;2023-06-22T04:00:22;98174.48;;;29.96;36.73
77526;BME280;66627;29.424;-98.496;2023-06-22T04:02:47;98184.14;;;30.08;36.60
77526;BME280;66627;29.424;-98.496;2023-06-22T04:05:13;98200.14;;;29.77;36.88
77526;BME280;66627;29.424;-98.496;2023-06-22T04:07:39;98211.24;;;29.51;36.62
77526;BME280;66627;29.424;-98.496;2023-06-22T04:10:03;98219.73;;;29.29;37.05
77526;BME280;66627;29.424;-98.496;2023-06-22T04:12:28;98211.31;;;29.90;36.84
77526;BME280;66627;29.424;-98.496;2023-06-22T04:14:54;98202.15;;;28.84;37.53
77526;BME280;66627;29.424;-98.496;2023-06-22T04:17:19;98198.37;;;29.09;37.81
77526;BME280;66627;29.424;-98.496;2023-06-22T04:19:45;98206.42;;;29.34;37.06
77526;BME280;66627;29.424;-98.496;2023-06-22T04:22:09;98212.18;;;29.22;38.09
77526;BME280;66627;29.424;-98.496;2023-06-22T04:24:35;98215.18;;;29.45;37.61
77526;BME280;66627;29.424;-98.496;2023-06-22T04:27:01;98229.74;;;29.28;36.93
77526;BME280;66627;29.424;-98.496;2023-06-22T04:29:26;98245.50;;;29.05;37.36
77526;BME280;66627;29.424;-98.496;2023-06-22T04:31:51;98244.28;;;28.13;38.68
77526;BME280;66627;29.424;-98.496;2023-06-22T04:34:17;98232.69;;;28.58;38.93
77526;BME280;66627;29.424;-98.496;2023-06-22T04:36:42;98233.92;;;28.32;39.19
77526;BME280;66627;29.424;-98.496;2023-06-22T04:39:09;98235.55;;;27.91;40.32
77526;BME280;66627;29.424;-98.496;2023-06-22T04:41:33;98223.85;;;28.55;40.35
77526;BME280;66627;29.424;-98.496;2023-06-22T04:43:58;98200.08;;;29.06;39.71
77526;BME280;66627;29.424;-98.496;2023-06-22T04:46:23;98201.79;;;29.15;40.12
77526;BME280;66627;29.424;-98.496;2023-06-22T04:48:49;98223.70;;;28.54;40.72
77526;BME280;66627;29.424;-98.496;2023-06-22T04:51:14;98202.12;;;27.95;41.29
77526;BME280;66627;29.424;-98.496;2023-06-22T04:53:40;98189.79;;;29.08;39.54
77526;BME280;66627;29.424;-98.496;2023-06-22T04:56:05;98191.67;;;27.87;41.40
77526;BME280;66627;29.424;-98.496;2023-06-22T04:58:30;98208.20;;;28.59;40.24
77526;BME280;66627;29.424;-98.496;2023-06-22T05:00:55;98241.59;;;28.43;39.97
77526;BME280;66627;29.424;-98.496;2023-06-22T05:03:21;98232.05;;;28.99;39.47
77526;BME280;66627;29.424;-98.496;2023-06-22T05:05:46;98243.51;;;28.61;39.82
77526;BME280;66627;29.424;-98.496;2023-06-22T05:08:13;98228.50;;;28.01;40.23
77526;BME280;66627;29.424;-98.496;2023-06-22T05:10:37;98210.61;;;29.07;39.99
77526;BME280;66627;29.424;-98.496;2023-06-22T05:13:02;98188.03;;;29.01;39.52
77526;BME280;66627;29.424;-98.496;2023-06-22T05:15:27;98170.02;;;28.94;39.51
77526;BME280;66627;29.424;-98.496;2023-06-22T05:17:53;98179.85;;;29.38;38.88
77526;BME280;66627;29.424;-98.496;2023-06-22T05:20:19;98191.48;;;28.55;40.23
77526;BME280;66627;29.424;-98.496;2023-06-22T05:22:44;98179.31;;;29.64;39.33
77526;BME280;66627;29.424;-98.496;2023-06-22T05:25:11;98170.82;;;29.19;40.32
77526;BME280;66627;29.424;-98.496;2023-06-22T05:27:35;98166.23;;;28.61;41.07
77526;BME280;66627;29.424;-98.496;2023-06-22T05:30:01;98169.18;;;29.31;40.31
77526;BME280;66627;29.424;-98.496;2023-06-22T05:32:25;98174.01;;;29.50;39.95
77526;BME280;66627;29.424;-98.496;2023-06-22T05:34:51;98166.68;;;28.87;40.58
77526;BME280;66627;29.424;-98.496;2023-06-22T05:37:17;98171.28;;;27.13;43.19
77526;BME280;66627;29.424;-98.496;2023-06-22T05:39:42;98166.95;;;28.20;41.64
77526;BME280;66627;29.424;-98.496;2023-06-22T05:42:08;98177.45;;;27.52;43.10
77526;BME280;66627;29.424;-98.496;2023-06-22T05:44:33;98189.50;;;27.87;42.68
77526;BME280;66627;29.424;-98.496;2023-06-22T05:46:58;98194.38;;;27.96;42.22
77526;BME280;66627;29.424;-98.496;2023-06-22T05:49:23;98186.57;;;27.96;42.66
77526;BME280;66627;29.424;-98.496;2023-06-22T05:51:49;98180.85;;;28.68;41.09
77526;BME280;66627;29.424;-98.496;2023-06-22T05:54:15;98186.60;;;27.14;43.94
77526;BME280;66627;29.424;-98.496;2023-06-22T05:56:40;98195.16;;;28.32;42.02
77526;BME280;66627;29.424;-98.496;2023-06-22T05:59:06;98196.87;;;28.11;41.88
77526;BME280;66627;29.424;-98.496;2023-06-22T06:01:31;98201.75;;;27.42;43.11
77526;BME280;66627;29.424;-98.496;2023-06-22T06:03:57;98190.84;;;28.63;41.58
77526;BME280;66627;29.424;-98.496;2023-06-22T06:06:22;98186.46;;;28.71;40.83
77526;BME280;66627;29.424;-98.496;2023-06-22T06:13:39;98167.85;;;29.27;39.82
77526;BME280;66627;29.424;-98.496;2023-06-22T06:16:04;98169.05;;;29.07;40.09
77526;BME280;66627;29.424;-98.496;2023-06-22T06:18:30;98149.12;;;28.34;40.25
77526;BME280;66627;29.424;-98.496;2023-06-22T06:20:55;98144.51;;;28.52;40.08
77526;BME280;66627;29.424;-98.496;2023-06-22T06:23:21;98142.53;;;28.22;40.06
77526;BME280;66627;29.424;-98.496;2023-06-22T06:25:46;98131.61;;;27.90;40.62
77526;BME280;66627;29.424;-98.496;2023-06-22T06:28:11;98129.15;;;27.89;40.22
77526;BME280;66627;29.424;-98.496;2023-06-22T06:30:36;98140.82;;;27.00;41.59
77526;BME280;66627;29.424;-98.496;2023-06-22T06:33:02;98129.65;;;27.52;41.20
77526;BME280;66627;29.424;-98.496;2023-06-22T06:35:27;98143.57;;;26.82;42.01
77526;BME280;66627;29.424;-98.496;2023-06-22T06:37:52;98151.47;;;27.21;41.87
77526;BME280;66627;29.424;-98.496;2023-06-22T06:40:18;98151.72;;;26.61;42.26
77526;BME280;66627;29.424;-98.496;2023-06-22T06:42:43;98172.92;;;27.41;42.24
77526;BME280;66627;29.424;-98.496;2023-06-22T06:45:09;98176.72;;;27.32;41.61
77526;BME280;66627;29.424;-98.496;2023-06-22T06:47:34;98162.89;;;28.17;40.00
77526;BME280;66627;29.424;-98.496;2023-06-22T06:49:59;98168.71;;;28.01;40.50
77526;BME280;66627;29.424;-98.496;2023-06-22T06:52:24;98165.68;;;28.37;40.20
77526;BME280;66627;29.424;-98.496;2023-06-22T06:54:49;98158.00;;;28.73;39.23
77526;BME280;66627;29.424;-98.496;2023-06-22T06:57:15;98166.88;;;28.63;39.29
77526;BME280;66627;29.424;-98.496;2023-06-22T06:59:40;98169.86;;;28.17;39.93
77526;BME280;66627;29.424;-98.496;2023-06-22T07:02:06;98175.20;;;27.92;39.37
77526;BME280;66627;29.424;-98.496;2023-06-22T07:04:30;98181.46;;;28.86;38.77
77526;BME280;66627;29.424;-98.496;2023-06-22T07:06:58;98184.68;;;27.81;39.97
77526;BME280;66627;29.424;-98.496;2023-06-22T07:09:22;98182.85;;;28.34;39.58
77526;BME280;66627;29.424;-98.496;2023-06-22T07:11:47;98181.97;;;27.34;40.57
77526;BME280;66627;29.424;-98.496;2023-06-22T07:14:13;98178.82;;;28.31;39.60
77526;BME280;66627;29.424;-98.496;2023-06-22T07:16:38;98177.80;;;27.75;39.98
77526;BME280;66627;29.424;-98.496;2023-06-22T07:19:04;98182.75;;;27.30;40.84
77526;BME280;66627;29.424;-98.496;2023-06-22T07:21:30;98189.82;;;27.65;40.37
77526;BME280;66627;29.424;-98.496;2023-06-22T07:23:55;98188.13;;;28.14;39.52
77526;BME280;66627;29.424;-98.496;2023-06-22T07:26:20;98185.03;;;28.76;38.83
77526;BME280;66627;29.424;-98.496;2023-06-22T07:28:45;98184.49;;;28.63;38.46
77526;BME280;66627;29.424;-98.496;2023-06-22T07:31:10;98187.89;;;28.52;38.71
77526;BME280;66627;29.424;-98.496;2023-06-22T07:33:36;98194.47;;;28.25;39.50
77526;BME280;66627;29.424;-98.496;2023-06-22T07:36:01;98198.82;;;28.69;39.84
77526;BME280;66627;29.424;-98.496;2023-06-22T07:38:27;98199.85;;;28.91;38.49
77526;BME280;66627;29.424;-98.496;2023-06-22T07:40:52;98203.47;;;29.09;38.28
77526;BME280;66627;29.424;-98.496;2023-06-22T07:43:18;98202.78;;;28.82;39.21
77526;BME280;66627;29.424;-98.496;2023-06-22T07:45:49;98200.20;;;28.17;39.32
77526;BME280;66627;29.424;-98.496;2023-06-22T07:48:08;98207.56;;;27.26;40.53
77526;BME280;66627;29.424;-98.496;2023-06-22T07:50:34;98212.52;;;26.89;41.07
77526;BME280;66627;29.424;-98.496;2023-06-22T07:52:59;98221.67;;;28.01;39.97
77526;BME280;66627;29.424;-98.496;2023-06-22T07:55:25;98223.04;;;28.23;39.53
77526;BME280;66627;29.424;-98.496;2023-06-22T07:57:50;98233.92;;;28.10;39.61
77526;BME280;66627;29.424;-98.496;2023-06-22T08:00:16;98245.64;;;28.22;39.20
77526;BME280;66627;29.424;-98.496;2023-06-22T08:02:42;98252.97;;;28.50;38.65
77526;BME280;66627;29.424;-98.496;2023-06-22T08:05:08;98258.64;;;28.41;39.11
77526;BME280;66627;29.424;-98.496;2023-06-22T08:07:33;98279.04;;;28.13;39.14
77526;BME280;66627;29.424;-98.496;2023-06-22T08:09:58;98303.59;;;28.64;39.65
77526;BME280;66627;29.424;-98.496;2023-06-22T08:12:23;98349.15;;;28.51;39.48
77526;BME280;66627;29.424;-98.496;2023-06-22T08:14:49;98398.79;;;27.84;40.03
77526;BME280;66627;29.424;-98.496;2023-06-22T08:17:15;98433.50;;;26.80;41.23
77526;BME280;66627;29.424;-98.496;2023-06-22T08:19:41;98474.03;;;27.07;41.71
77526;BME280;66627;29.424;-98.496;2023-06-22T08:22:07;98509.07;;;26.64;41.53
77526;BME280;66627;29.424;-98.496;2023-06-22T08:24:32;98506.73;;;26.26;42.94
77526;BME280;66627;29.424;-98.496;2023-06-22T08:26:57;98489.46;;;26.38;42.32
77526;BME280;66627;29.424;-98.496;2023-06-22T08:29:22;98477.97;;;26.49;42.29
77526;BME280;66627;29.424;-98.496;2023-06-22T08:31:48;98484.86;;;27.02;41.97
77526;BME280;66627;29.424;-98.496;2023-06-22T08:34:13;98485.57;;;26.62;41.62
77526;BME280;66627;29.424;-98.496;2023-06-22T08:36:39;98482.54;;;26.65;41.48
77526;BME280;66627;29.424;-98.496;2023-06-22T08:39:05;98484.40;;;27.17;40.32
77526;BME280;66627;29.424;-98.496;2023-06-22T08:41:30;98479.81;;;27.65;39.97
77526;BME280;66627;29.424;-98.496;2023-06-22T08:43:55;98481.24;;;27.13;39.94
77526;BME280;66627;29.424;-98.496;2023-06-22T08:46:20;98491.42;;;27.53;39.19
77526;BME280;66627;29.424;-98.496;2023-06-22T08:48:46;98487.98;;;27.79;39.05
77526;BME280;66627;29.424;-98.496;2023-06-22T08:51:11;98500.26;;;28.66;38.35
77526;BME280;66627;29.424;-98.496;2023-06-22T08:53:37;98515.25;;;28.42;38.37
77526;BME280;66627;29.424;-98.496;2023-06-22T08:56:03;98473.66;;;28.83;38.03
77526;BME280;66627;29.424;-98.496;2023-06-22T08:58:28;98476.73;;;29.07;37.14
77526;BME280;66627;29.424;-98.496;2023-06-22T09:00:53;98516.57;;;29.02;37.23
77526;BME280;66627;29.424;-98.496;2023-06-22T09:03:18;98511.90;;;28.65;37.47
77526;BME280;66627;29.424;-98.496;2023-06-22T09:05:44;98508.01;;;29.24;37.35
77526;BME280;66627;29.424;-98.496;2023-06-22T09:08:10;98503.57;;;29.56;36.93
77526;BME280;66627;29.424;-98.496;2023-06-22T09:10:34;98502.78;;;29.24;37.23
77526;BME280;66627;29.424;-98.496;2023-06-22T09:12:59;98495.89;;;28.03;38.25
77526;BME280;66627;29.424;-98.496;2023-06-22T09:15:24;98494.56;;;27.35;40.02
77526;BME280;66627;29.424;-98.496;2023-06-22T09:17:50;98486.11;;;27.37;39.81
77526;BME280;66627;29.424;-98.496;2023-06-22T09:20:15;98489.16;;;28.20;38.52
77526;BME280;66627;29.424;-98.496;2023-06-22T09:22:40;98492.90;;;28.24;38.10
77526;BME280;66627;29.424;-98.496;2023-06-22T09:25:06;98502.64;;;27.46;39.74
77526;BME280;66627;29.424;-98.496;2023-06-22T09:27:30;98518.50;;;28.97;39.00
77526;BME280;66627;29.424;-98.496;2023-06-22T09:29:58;98522.80;;;28.60;38.99
77526;BME280;66627;29.424;-98.496;2023-06-22T09:32:21;98553.46;;;29.38;37.65
77526;BME280;66627;29.424;-98.496;2023-06-22T09:34:47;98611.85;;;29.36;38.08
77526;BME280;66627;29.424;-98.496;2023-06-22T09:37:13;98683.70;;;28.57;38.86
77526;BME280;66627;29.424;-98.496;2023-06-22T09:39:40;98727.58;;;27.87;39.05
77526;BME280;66627;29.424;-98.496;2023-06-22T09:42:10;98739.52;;;27.60;39.03
77526;BME280;66627;29.424;-98.496;2023-06-22T09:44:29;98732.06;;;27.77;38.75
77526;BME280;66627;29.424;-98.496;2023-06-22T09:46:54;98733.19;;;28.00;37.82
77526;BME280;66627;29.424;-98.496;2023-06-22T09:49:20;98737.16;;;27.76;37.97
77526;BME280;66627;29.424;-98.496;2023-06-22T09:51:45;98739.20;;;27.57;37.34
77526;BME280;66627;29.424;-98.496;2023-06-22T09:54:10;98751.24;;;27.86;37.52
77526;BME280;66627;29.424;-98.496;2023-06-22T09:56:38;98749.08;;;27.96;36.89
77526;BME280;66627;29.424;-98.496;2023-06-22T09:59:01;98749.57;;;27.94;37.07
77526;BME280;66627;29.424;-98.496;2023-06-22T10:01:26;98751.25;;;28.20;38.90
77526;BME280;66627;29.424;-98.496;2023-06-22T10:03:53;98734.72;;;28.00;38.44
77526;BME280;66627;29.424;-98.496;2023-06-22T10:06:17;98726.82;;;28.17;38.77
77526;BME280;66627;29.424;-98.496;2023-06-22T10:08:43;98723.87;;;27.67;39.07
77526;BME280;66627;29.424;-98.496;2023-06-22T10:11:09;98741.19;;;27.96;39.53
77526;BME280;66627;29.424;-98.496;2023-06-22T10:13:34;98752.77;;;28.03;39.13
77526;BME280;66627;29.424;-98.496;2023-06-22T10:15:59;98748.72;;;27.64;38.64
77526;BME280;66627;29.424;-98.496;2023-06-22T10:18:24;98728.22;;;27.50;39.01
77526;BME280;66627;29.424;-98.496;2023-06-22T10:20:50;98709.48;;;27.20;40.03
77526;BME280;66627;29.424;-98.496;2023-06-22T10:23:15;98708.32;;;27.42;40.91
77526;BME280;66627;29.424;-98.496;2023-06-22T10:25:41;98695.24;;;27.68;40.75
77526;BME280;66627;29.424;-98.496;2023-06-22T10:28:06;98692.91;;;27.15;41.41
77526;BME280;66627;29.424;-98.496;2023-06-22T10:30:31;98684.74;;;27.92;41.01
77526;BME280;66627;29.424;-98.496;2023-06-22T10:32:56;98674.24;;;28.33;40.58
77526;BME280;66627;29.424;-98.496;2023-06-22T10:35:21;98665.65;;;27.41;41.67
77526;BME280;66627;29.424;-98.496;2023-06-22T10:37:47;98652.54;;;27.98;40.72
77526;BME280;66627;29.424;-98.496;2023-06-22T10:40:14;98649.66;;;27.72;42.10
77526;BME280;66627;29.424;-98.496;2023-06-22T10:42:37;98632.16;;;27.53;41.96
77526;BME280;66627;29.424;-98.496;2023-06-22T10:45:03;98616.97;;;28.11;41.45
77526;BME280;66627;29.424;-98.496;2023-06-22T10:47:27;98595.77;;;26.99;43.36
77526;BME280;66627;29.424;-98.496;2023-06-22T10:49:53;98586.53;;;26.96;44.24
77526;BME280;66627;29.424;-98.496;2023-06-22T10:52:19;98579.33;;;27.04;45.44
77526;BME280;66627;29.424;-98.496;2023-06-22T10:54:43;98571.59;;;26.01;47.85
77526;BME280;66627;29.424;-98.496;2023-06-22T10:57:09;98565.48;;;26.38;47.65
77526;BME280;66627;29.424;-98.496;2023-06-22T10:59:34;98554.42;;;26.68;48.70
77526;BME280;66627;29.424;-98.496;2023-06-22T11:02:00;98523.28;;;25.73;48.49
77526;BME280;66627;29.424;-98.496;2023-06-22T11:04:25;98501.16;;;25.70;51.30
77526;BME280;66627;29.424;-98.496;2023-06-22T11:06:51;98482.37;;;25.58;50.96
77526;BME280;66627;29.424;-98.496;2023-06-22T11:09:15;98456.66;;;25.97;51.92
77526;BME280;66627;29.424;-98.496;2023-06-22T11:11:40;98427.76;;;25.36;54.21
77526;BME280;66627;29.424;-98.496;2023-06-22T11:14:06;98346.47;;;25.91;54.05
77526;BME280;66627;29.424;-98.496;2023-06-22T11:16:32;98281.30;;;25.88;53.94
77526;BME280;66627;29.424;-98.496;2023-06-22T11:18:57;98280.87;;;24.82;55.61
77526;BME280;66627;29.424;-98.496;2023-06-22T11:21:22;98338.11;;;24.60;53.41
77526;BME280;66627;29.424;-98.496;2023-06-22T11:23:47;98385.63;;;24.64;55.32
77526;BME280;66627;29.424;-98.496;2023-06-22T11:26:13;98349.29;;;24.59;55.08
77526;BME280;66627;29.424;-98.496;2023-06-22T11:28:38;98282.73;;;25.09;54.25
77526;BME280;66627;29.424;-98.496;2023-06-22T11:31:04;98250.64;;;25.37;53.74
77526;BME280;66627;29.424;-98.496;2023-06-22T11:33:29;98236.25;;;25.15;53.56
77526;BME280;66627;29.424;-98.496;2023-06-22T11:35:54;98216.29;;;25.30;53.71
77526;BME280;66627;29.424;-98.496;2023-06-22T11:38:20;98208.00;;;24.13;55.62
77526;BME280;66627;29.424;-98.496;2023-06-22T11:40:45;98192.44;;;23.93;55.77
77526;BME280;66627;29.424;-98.496;2023-06-22T11:43:10;98184.98;;;24.41;55.17
77526;BME280;66627;29.424;-98.496;2023-06-22T11:45:36;98197.83;;;25.06;53.98
77526;BME280;66627;29.424;-98.496;2023-06-22T11:48:01;98209.57;;;25.34;52.58
77526;BME280;66627;29.424;-98.496;2023-06-22T11:50:27;98215.00;;;25.26;52.09
77526;BME280;66627;29.424;-98.496;2023-06-22T11:52:52;98231.34;;;25.25;52.64
77526;BME280;66627;29.424;-98.496;2023-06-22T11:55:18;98253.59;;;25.11;52.14
77526;BME280;66627;29.424;-98.496;2023-06-22T11:57:54;98289.02;;;24.01;54.92
77526;BME280;66627;29.424;-98.496;2023-06-22T12:00:10;98317.08;;;25.07;54.13
77526;BME280;66627;29.424;-98.496;2023-06-22T12:02:35;98329.15;;;25.06;53.12
77526;BME280;66627;29.424;-98.496;2023-06-22T12:05:00;98340.00;;;25.32;52.83
77526;BME280;66627;29.424;-98.496;2023-06-22T12:07:26;98306.53;;;25.83;51.48
77526;BME280;66627;29.424;-98.496;2023-06-22T12:09:51;98286.44;;;25.85;52.87
77526;BME280;66627;29.424;-98.496;2023-06-22T12:12:17;98280.59;;;26.20;51.73
77526;BME280;66627;29.424;-98.496;2023-06-22T12:14:42;98272.85;;;26.68;49.88
77526;BME280;66627;29.424;-98.496;2023-06-22T12:17:08;98282.10;;;26.59;49.57
77526;BME280;66627;29.424;-98.496;2023-06-22T12:19:33;98293.47;;;25.49;53.54
77526;BME280;66627;29.424;-98.496;2023-06-22T12:21:58;98295.42;;;25.92;52.50
77526;BME280;66627;29.424;-98.496;2023-06-22T12:24:24;98298.35;;;25.88;52.55
77526;BME280;66627;29.424;-98.496;2023-06-22T12:26:51;98304.28;;;26.51;51.11
77526;BME280;66627;29.424;-98.496;2023-06-22T12:29:14;98321.45;;;26.21;50.74
77526;BME280;66627;29.424;-98.496;2023-06-22T12:31:39;98340.76;;;26.36;50.42
77526;BME280;66627;29.424;-98.496;2023-06-22T12:34:05;98335.71;;;25.65;52.53
77526;BME280;66627;29.424;-98.496;2023-06-22T12:36:30;98336.38;;;25.83;52.87